Lechfeld Airport


Codes: ETSL/
Name: Lechfeld Airport
City:
Country: Germany
Elevation: 1822 ft.

Photos at Lechfeld Airport


   Photos courtesy of SpottingLog. You can add your own sightings and photos by signing up for a free trial today.



No photos found.

Weather at Lechfeld Airport


Time (UTC)DescriptionTempratureWindCloud coverageVisibilityPressureHumidity
21-Feb-2024 03:00Broken Clouds3°C7 mph, SW84%10000m1028hPa88%
21-Feb-2024 06:00Overcast Clouds3°C7 mph, SW87%10000m1027hPa83%
21-Feb-2024 09:00Overcast Clouds5°C4 mph, SW95%10000m1025hPa68%
21-Feb-2024 12:00Overcast Clouds9°C4 mph, SW100%10000m1021hPa45%
21-Feb-2024 15:00Overcast Clouds10°C4 mph, SW100%10000m1018hPa56%
21-Feb-2024 18:00Overcast Clouds7°C7 mph, S100%10000m1017hPa66%
21-Feb-2024 21:00Overcast Clouds7°C9 mph, SW100%10000m1016hPa65%
22-Feb-2024 00:00Overcast Clouds7°C9 mph, W100%10000m1014hPa73%
22-Feb-2024 03:00Light Rain7°C13 mph, SW100%10000m1011hPa79%
22-Feb-2024 06:00Light Rain6°C9 mph, SW100%10000m1009hPa85%
22-Feb-2024 09:00Moderate Rain7°C13 mph, SW100%10000m1007hPa86%
22-Feb-2024 12:00Light Rain8°C13 mph, SW100%10000m1004hPa80%
22-Feb-2024 15:00Light Rain9°C7 mph, SW100%10000m1000hPa81%
22-Feb-2024 18:00Light Rain7°C4 mph, SW100%10000m999hPa83%
22-Feb-2024 21:00Light Rain7°C9 mph, SW100%10000m999hPa88%
23-Feb-2024 00:00Light Rain7°C16 mph, W100%10000m1000hPa88%
23-Feb-2024 03:00Light Rain5°C13 mph, W100%10000m1003hPa85%
23-Feb-2024 06:00Light Rain3°C9 mph, SW100%10000m1004hPa84%
23-Feb-2024 09:00Light Snow4°C9 mph, SW100%10000m1004hPa79%
23-Feb-2024 12:00Light Snow4°C4 mph, SW100%10000m1003hPa75%
23-Feb-2024 15:00Light Snow4°C4 mph, SW100%10000m1002hPa73%
23-Feb-2024 18:00Overcast Clouds2°C2 mph, SW100%10000m1002hPa84%
23-Feb-2024 21:00Overcast Clouds2°C4 mph, SW100%10000m1001hPa86%
24-Feb-2024 00:00Overcast Clouds1°C4 mph, SW100%10000m1001hPa88%
24-Feb-2024 03:00Overcast Clouds1°C4 mph, SW100%10000m1001hPa85%
24-Feb-2024 06:00Overcast Clouds1°C4 mph, S100%10000m1003hPa91%
24-Feb-2024 09:00Overcast Clouds4°C4 mph, SW86%10000m1004hPa72%
24-Feb-2024 12:00Light Rain6°C2 mph, SE92%10000m1006hPa63%
24-Feb-2024 15:00Scattered Clouds7°C7 mph, E32%10000m1005hPa60%
24-Feb-2024 18:00Broken Clouds3°C7 mph, E55%10000m1006hPa79%
24-Feb-2024 21:00Overcast Clouds2°C4 mph, SE100%10000m1007hPa87%
25-Feb-2024 00:00Overcast Clouds2°C4 mph, SW100%10000m1008hPa87%
25-Feb-2024 03:00Overcast Clouds1°C4 mph, SW100%10000m1008hPa87%
25-Feb-2024 06:00Broken Clouds-0°C4 mph, W80%10000m1009hPa87%
25-Feb-2024 09:00Broken Clouds4°C11 mph, W51%10000m1010hPa70%
25-Feb-2024 12:00Broken Clouds6°C9 mph, W56%10000m1008hPa60%
25-Feb-2024 15:00Broken Clouds7°C2 mph, SW67%10000m1007hPa55%
25-Feb-2024 18:00Scattered Clouds3°C4 mph, SE48%10000m1007hPa76%
25-Feb-2024 21:00Scattered Clouds1°C7 mph, SE44%10000m1006hPa86%
26-Feb-2024 00:00Broken Clouds0°C7 mph, SE65%10000m1005hPa88%